Flight Track Log - Related Links

Times and Time Zones

All times are in EDT time to prevent confusion due to time zone crossing. See the EJA221 flight status page for this flight to view local times or setup timezone preferences in your user account.

Time Position Orientation Groundspeed Altitude Reporting Facility
EDT Latitude Longitude Course Direction KTS MPH feet Rate Location/Type
Sun 07:32:42 PM 34.4272 -119.8561 254° West 167 192 500  Level Los Center
Sun 07:33:30 PM 34.4161 -119.9039 254° West 202 232 3,000 2,854 Climbing Los Center
Sun 07:34:25 PM 34.3572 -119.9203 193° South 254 292 5,400 2,130 Climbing Los Center
Sun 07:35:48 PM 34.2519 -119.9475 192° South 283 326 7,900 1,531 Climbing Los Center
Sun 07:36:50 PM 34.1781 -119.9372 173° South 292 336 9,100 1,645 Climbing Los Center
Sun 07:37:52 PM 34.1200 -119.8642 134° Southeast 300 345 11,300 2,274 Climbing Los Center
Sun 07:38:54 PM 34.1236 -119.7242 88° East 365 420 13,800 2,177 Climbing Los Center
Sun 07:39:56 PM 34.1400 -119.5992 81° East 376 433 15,800 1,935 Climbing Los Center
Sun 07:40:58 PM 34.1564 -119.4719 81° East 384 442 17,800 1,984 Climbing Los Center
Sun 07:42:00 PM 34.1842 -119.3406 76° East 403 464 19,900 1,968 Climbing Los Center
Sun 07:43:03 PM 34.2231 -119.2086 70° East 412 474 21,900 1,920 Climbing Los Center
Sun 07:44:05 PM 34.2625 -119.0761 70° East 416 479 23,900 2,032 Climbing Los Center
Sun 07:45:07 PM 34.3086 -118.9153 71° East 423 487 26,100 1,500 Climbing Los Center
Sun 07:46:09 PM 34.3514 -118.7700 70° East 449 517 27,000 435 Climbing Los Center
Sun 07:47:11 PM 34.3975 -118.6111 71° East 490 564 27,000  Level Los Center
Sun 07:48:13 PM 34.4453 -118.4458 71° East 513 590 27,000  Level Los Center
Sun 07:49:15 PM 34.4925 -118.2797 71° East 519 597 27,000  Level Los Center
Sun 07:50:17 PM 34.5447 -118.0972 71° East 520 598 27,000  Level Los Center
Sun 07:51:19 PM 34.5914 -117.9314 71° East 522 601 27,000  Level Los Center
Sun 07:52:22 PM 34.6375 -117.7658 71° East 524 603 27,000  Level Los Center
Sun 07:53:24 PM 34.6833 -117.6000 71° East 522 601 27,000  Level Los Center
Sun 07:54:26 PM 34.7378 -117.4003 72° East 526 605 27,000 -190 Level Los Center
Sun 07:55:30 PM 34.7864 -117.2356 70° East 525 604 26,600 -1,452 Descending Los Center
Sun 07:56:30 PM 34.8547 -117.0869 61° Northeast 509 586 24,000 -1,279 Descending Los Center
Sun 07:57:32 PM 34.9214 -116.9414 61° Northeast 498 573 24,000  Level Los Center
Sun 07:58:34 PM 34.9989 -116.7975 57° Northeast 506 582 24,000  Level Los Center
Sun 07:59:36 PM 35.0806 -116.6133 62° Northeast 519 597 24,000  Level Los Center
Sun 08:00:38 PM 35.1014 -116.4425 81° East 513 590 24,000 -384 Level Los Center
Sun 08:01:41 PM 35.1825 -116.2978 56° Northeast 519 597 23,200 -1,584 Descending Los Center
Sun 08:02:43 PM 35.2856 -116.1722 45° Northeast 523 602 20,700 -2,177 Descending Los Center
Sun 08:03:45 PM 35.3817 -116.0494 46° Northeast 506 582 18,700 -2,032 Descending Los Center
Sun 08:04:47 PM 35.4914 -115.9072 47° Northeast 486 559 16,500 -1,867 Descending Los Center
Sun 08:06:00 PM 35.5953 -115.7828 44° Northeast 415 478 14,500 -1,500 Descending Los Center
Sun 08:06:51 PM 35.6511 -115.7083 47° Northeast 380 437 13,400 -850 Descending Los Center
Sun 08:07:53 PM 35.6692 -115.6094 77° East 327 376 12,900 -581 Descending Los Center
Sun 08:08:55 PM 35.6656 -115.5158 93° East 287 330 12,200 -919 Descending Los Center
Sun 08:09:57 PM 35.6811 -115.4275 78° East 270 311 11,000 -927 Descending Los Center
Sun 08:10:58 PM 35.7556 -115.4031 15° North 261 300 10,300 -919 Descending Los Center
Sun 08:12:01 PM 35.8256 -115.3767 17° North 260 299 9,100 -1,180 Descending Los Center
Sun 08:13:00 PM 35.8911 -115.3511 18° North 249 287 7,900 -1,109 Descending Los Center
Sun 08:14:00 PM 35.9519 -115.3233 20° North 238 274 6,900 -1,091 Descending Los Center
Sun 08:15:01 PM 36.0142 -115.3214 North 218 251 5,700 -1,078 Descending Los Center
Sun 08:16:08 PM 36.0692 -115.2956 21° North 194 223 4,600 -962 Descending Los Center
Sun 08:17:12 PM 36.0739 -115.2281 85° East 207 238 3,600 -984 Descending Los Center
Sun 08:18:10 PM 36.0736 -115.1769 90° East 164 189 2,600 -1,034 Descending Los Center
Sun 08:20:00 PM 36.0801 -115.1523 95° East  Level Estimated

Login

Don't have an account? Register now (free) for customized features, flight alerts, and more!